sensor_id;sensor_type;location;lat;lon;timestamp;temperature;humidity
14699;DHT22;7439;50.804;4.602;2022-10-23T00:01:55;9.50;23.80
14699;DHT22;7439;50.804;4.602;2022-10-23T00:04:23;9.50;99.90
14699;DHT22;7439;50.804;4.602;2022-10-23T00:06:51;9.50;99.90
14699;DHT22;7439;50.804;4.602;2022-10-23T00:09:22;9.60;99.90
14699;DHT22;7439;50.804;4.602;2022-10-23T00:11:50;9.50;99.90
14699;DHT22;7439;50.804;4.602;2022-10-23T00:14:22;9.50;99.90
14699;DHT22;7439;50.804;4.602;2022-10-23T00:16:52;9.50;99.90
14699;DHT22;7439;50.804;4.602;2022-10-23T00:19:19;9.50;99.90
14699;DHT22;7439;50.804;4.602;2022-10-23T00:21:46;9.50;99.90
14699;DHT22;7439;50.804;4.602;2022-10-23T00:24:13;9.50;99.90
14699;DHT22;7439;50.804;4.602;2022-10-23T00:26:41;9.50;99.90
14699;DHT22;7439;50.804;4.602;2022-10-23T00:29:08;9.50;1.00
14699;DHT22;7439;50.804;4.602;2022-10-23T00:31:37;9.50;1.00
14699;DHT22;7439;50.804;4.602;2022-10-23T00:34:05;9.40;1.00
14699;DHT22;7439;50.804;4.602;2022-10-23T00:36:33;9.40;99.90
14699;DHT22;7439;50.804;4.602;2022-10-23T00:39:00;9.30;99.90
14699;DHT22;7439;50.804;4.602;2022-10-23T00:41:29;9.40;1.00
14699;DHT22;7439;50.804;4.602;2022-10-23T00:44:03;9.40;1.00
14699;DHT22;7439;50.804;4.602;2022-10-23T00:46:30;9.30;1.00
14699;DHT22;7439;50.804;4.602;2022-10-23T00:48:59;9.20;99.90
14699;DHT22;7439;50.804;4.602;2022-10-23T00:51:30;9.20;1.00
14699;DHT22;7439;50.804;4.602;2022-10-23T00:53:59;9.30;1.00
14699;DHT22;7439;50.804;4.602;2022-10-23T00:56:30;9.30;1.00
14699;DHT22;7439;50.804;4.602;2022-10-23T00:59:00;9.30;1.00
14699;DHT22;7439;50.804;4.602;2022-10-23T01:01:27;9.20;1.00
14699;DHT22;7439;50.804;4.602;2022-10-23T01:03:54;9.30;1.00
14699;DHT22;7439;50.804;4.602;2022-10-23T01:06:32;9.30;1.00
14699;DHT22;7439;50.804;4.602;2022-10-23T01:09:08;9.40;1.00
14699;DHT22;7439;50.804;4.602;2022-10-23T01:11:41;9.40;1.00
14699;DHT22;7439;50.804;4.602;2022-10-23T01:14:17;9.40;1.00
14699;DHT22;7439;50.804;4.602;2022-10-23T01:16:54;9.40;30.20
14699;DHT22;7439;50.804;4.602;2022-10-23T01:19:39;9.40;91.10
14699;DHT22;7439;50.804;4.602;2022-10-23T01:22:21;9.50;99.90
14699;DHT22;7439;50.804;4.602;2022-10-23T01:24:57;9.50;99.90
14699;DHT22;7439;50.804;4.602;2022-10-23T01:27:29;9.40;99.90
14699;DHT22;7439;50.804;4.602;2022-10-23T01:30:03;9.40;99.90
14699;DHT22;7439;50.804;4.602;2022-10-23T01:32:36;9.50;99.90
14699;DHT22;7439;50.804;4.602;2022-10-23T01:35:09;9.50;99.90
14699;DHT22;7439;50.804;4.602;2022-10-23T01:37:39;9.50;99.90
14699;DHT22;7439;50.804;4.602;2022-10-23T01:40:11;9.50;99.90
14699;DHT22;7439;50.804;4.602;2022-10-23T01:42:46;9.50;99.90
14699;DHT22;7439;50.804;4.602;2022-10-23T01:45:18;9.50;99.90
14699;DHT22;7439;50.804;4.602;2022-10-23T01:47:48;9.60;1.00
14699;DHT22;7439;50.804;4.602;2022-10-23T01:50:17;9.60;1.00
14699;DHT22;7439;50.804;4.602;2022-10-23T01:52:46;9.60;1.00
14699;DHT22;7439;50.804;4.602;2022-10-23T01:55:13;9.60;1.00
14699;DHT22;7439;50.804;4.602;2022-10-23T01:57:44;9.70;1.00
14699;DHT22;7439;50.804;4.602;2022-10-23T02:00:16;9.60;1.00
14699;DHT22;7439;50.804;4.602;2022-10-23T02:02:46;9.70;1.00
14699;DHT22;7439;50.804;4.602;2022-10-23T02:05:16;9.70;1.00
14699;DHT22;7439;50.804;4.602;2022-10-23T02:07:45;9.70;1.00
14699;DHT22;7439;50.804;4.602;2022-10-23T02:10:13;9.70;5.30
14699;DHT22;7439;50.804;4.602;2022-10-23T02:12:48;9.80;1.00
14699;DHT22;7439;50.804;4.602;2022-10-23T02:15:22;9.80;1.00
14699;DHT22;7439;50.804;4.602;2022-10-23T02:18:01;9.80;7.60
14699;DHT22;7439;50.804;4.602;2022-10-23T02:20:35;9.70;1.00
14699;DHT22;7439;50.804;4.602;2022-10-23T02:23:14;9.70;1.00
14699;DHT22;7439;50.804;4.602;2022-10-23T02:25:47;9.80;1.00
14699;DHT22;7439;50.804;4.602;2022-10-23T02:28:21;9.70;1.00
14699;DHT22;7439;50.804;4.602;2022-10-23T02:30:50;9.70;1.00
14699;DHT22;7439;50.804;4.602;2022-10-23T02:33:18;9.80;1.00
14699;DHT22;7439;50.804;4.602;2022-10-23T02:35:45;9.80;1.00
14699;DHT22;7439;50.804;4.602;2022-10-23T02:38:29;9.80;1.00
14699;DHT22;7439;50.804;4.602;2022-10-23T02:40:58;9.80;1.00
14699;DHT22;7439;50.804;4.602;2022-10-23T02:43:33;9.80;61.30
14699;DHT22;7439;50.804;4.602;2022-10-23T02:46:08;9.80;99.90
14699;DHT22;7439;50.804;4.602;2022-10-23T02:48:42;9.80;99.90
14699;DHT22;7439;50.804;4.602;2022-10-23T02:51:17;9.80;99.90
14699;DHT22;7439;50.804;4.602;2022-10-23T02:53:51;9.80;99.90
14699;DHT22;7439;50.804;4.602;2022-10-23T02:56:24;9.80;99.90
14699;DHT22;7439;50.804;4.602;2022-10-23T02:59:00;9.80;99.90
14699;DHT22;7439;50.804;4.602;2022-10-23T03:01:32;9.90;99.90
14699;DHT22;7439;50.804;4.602;2022-10-23T03:04:04;9.90;99.90
14699;DHT22;7439;50.804;4.602;2022-10-23T03:06:32;9.90;99.90
14699;DHT22;7439;50.804;4.602;2022-10-23T03:09:03;9.90;99.90
14699;DHT22;7439;50.804;4.602;2022-10-23T03:11:30;9.90;99.90
14699;DHT22;7439;50.804;4.602;2022-10-23T03:13:59;10.00;99.90
14699;DHT22;7439;50.804;4.602;2022-10-23T03:16:26;9.90;99.90
14699;DHT22;7439;50.804;4.602;2022-10-23T03:18:53;9.90;99.90
14699;DHT22;7439;50.804;4.602;2022-10-23T03:21:20;9.90;99.90
14699;DHT22;7439;50.804;4.602;2022-10-23T03:23:47;9.90;99.90
14699;DHT22;7439;50.804;4.602;2022-10-23T03:26:15;10.00;99.90
14699;DHT22;7439;50.804;4.602;2022-10-23T03:28:42;9.90;99.90
14699;DHT22;7439;50.804;4.602;2022-10-23T03:31:13;9.90;99.90
14699;DHT22;7439;50.804;4.602;2022-10-23T03:33:40;9.90;99.90
14699;DHT22;7439;50.804;4.602;2022-10-23T03:36:08;9.90;99.90
14699;DHT22;7439;50.804;4.602;2022-10-23T03:38:35;9.90;99.90
14699;DHT22;7439;50.804;4.602;2022-10-23T03:41:02;10.00;99.90
14699;DHT22;7439;50.804;4.602;2022-10-23T03:43:29;9.90;99.90
14699;DHT22;7439;50.804;4.602;2022-10-23T03:45:57;10.00;99.90
14699;DHT22;7439;50.804;4.602;2022-10-23T03:48:25;10.00;99.90
14699;DHT22;7439;50.804;4.602;2022-10-23T03:50:52;10.00;99.90
14699;DHT22;7439;50.804;4.602;2022-10-23T03:53:19;10.00;99.90
14699;DHT22;7439;50.804;4.602;2022-10-23T03:55:46;10.00;99.90
14699;DHT22;7439;50.804;4.602;2022-10-23T03:58:13;9.90;99.90
14699;DHT22;7439;50.804;4.602;2022-10-23T04:00:41;9.90;99.90
14699;DHT22;7439;50.804;4.602;2022-10-23T04:03:08;9.90;99.90
14699;DHT22;7439;50.804;4.602;2022-10-23T04:05:37;9.90;99.90
14699;DHT22;7439;50.804;4.602;2022-10-23T04:08:04;9.90;99.90
14699;DHT22;7439;50.804;4.602;2022-10-23T04:10:31;9.90;99.90
14699;DHT22;7439;50.804;4.602;2022-10-23T04:12:58;9.90;99.90
14699;DHT22;7439;50.804;4.602;2022-10-23T04:15:25;9.90;99.90
14699;DHT22;7439;50.804;4.602;2022-10-23T04:17:52;9.80;99.90
14699;DHT22;7439;50.804;4.602;2022-10-23T04:20:19;9.80;99.90
14699;DHT22;7439;50.804;4.602;2022-10-23T04:22:48;9.80;99.90
14699;DHT22;7439;50.804;4.602;2022-10-23T04:25:15;9.70;99.90
14699;DHT22;7439;50.804;4.602;2022-10-23T04:27:42;9.70;99.90
14699;DHT22;7439;50.804;4.602;2022-10-23T04:30:11;9.70;1.00
14699;DHT22;7439;50.804;4.602;2022-10-23T04:32:38;9.70;1.00
14699;DHT22;7439;50.804;4.602;2022-10-23T04:35:06;9.70;1.00
14699;DHT22;7439;50.804;4.602;2022-10-23T04:37:34;9.70;1.00
14699;DHT22;7439;50.804;4.602;2022-10-23T04:40:03;9.70;1.00
14699;DHT22;7439;50.804;4.602;2022-10-23T04:42:30;9.60;1.00
14699;DHT22;7439;50.804;4.602;2022-10-23T04:44:57;9.70;1.00
14699;DHT22;7439;50.804;4.602;2022-10-23T04:47:24;9.70;1.00
14699;DHT22;7439;50.804;4.602;2022-10-23T04:49:51;9.60;1.00
14699;DHT22;7439;50.804;4.602;2022-10-23T04:52:18;9.70;15.40
14699;DHT22;7439;50.804;4.602;2022-10-23T04:54:45;9.70;77.10
14699;DHT22;7439;50.804;4.602;2022-10-23T04:57:14;9.70;99.90
14699;DHT22;7439;50.804;4.602;2022-10-23T04:59:41;9.70;99.90
14699;DHT22;7439;50.804;4.602;2022-10-23T05:02:09;9.70;99.90
14699;DHT22;7439;50.804;4.602;2022-10-23T05:04:36;9.70;99.90
14699;DHT22;7439;50.804;4.602;2022-10-23T05:07:03;9.70;99.90
14699;DHT22;7439;50.804;4.602;2022-10-23T05:09:30;9.70;99.90
14699;DHT22;7439;50.804;4.602;2022-10-23T05:11:57;9.80;1.00
14699;DHT22;7439;50.804;4.602;2022-10-23T05:14:26;9.80;1.00
14699;DHT22;7439;50.804;4.602;2022-10-23T05:16:56;9.90;1.00
14699;DHT22;7439;50.804;4.602;2022-10-23T05:19:30;9.80;1.00
14699;DHT22;7439;50.804;4.602;2022-10-23T05:21:59;9.90;10.60
14699;DHT22;7439;50.804;4.602;2022-10-23T05:24:27;9.90;94.60
14699;DHT22;7439;50.804;4.602;2022-10-23T05:26:54;9.90;99.90
14699;DHT22;7439;50.804;4.602;2022-10-23T05:29:22;10.00;99.90
14699;DHT22;7439;50.804;4.602;2022-10-23T05:31:54;9.90;99.90
14699;DHT22;7439;50.804;4.602;2022-10-23T05:34:24;9.90;99.90
14699;DHT22;7439;50.804;4.602;2022-10-23T05:36:52;9.90;99.90
14699;DHT22;7439;50.804;4.602;2022-10-23T05:39:20;9.90;99.90
14699;DHT22;7439;50.804;4.602;2022-10-23T05:41:47;9.90;99.90
14699;DHT22;7439;50.804;4.602;2022-10-23T05:44:14;10.00;99.90
14699;DHT22;7439;50.804;4.602;2022-10-23T05:46:45;10.00;99.90
14699;DHT22;7439;50.804;4.602;2022-10-23T05:49:19;9.90;99.90
14699;DHT22;7439;50.804;4.602;2022-10-23T05:51:49;9.90;99.90
14699;DHT22;7439;50.804;4.602;2022-10-23T05:54:16;9.90;99.90
14699;DHT22;7439;50.804;4.602;2022-10-23T05:56:43;10.00;99.90
14699;DHT22;7439;50.804;4.602;2022-10-23T05:59:10;9.90;99.90
14699;DHT22;7439;50.804;4.602;2022-10-23T06:01:37;10.00;99.90
14699;DHT22;7439;50.804;4.602;2022-10-23T06:04:05;10.00;1.00
14699;DHT22;7439;50.804;4.602;2022-10-23T06:06:33;10.00;1.00
14699;DHT22;7439;50.804;4.602;2022-10-23T06:09:01;10.00;1.00
14699;DHT22;7439;50.804;4.602;2022-10-23T06:11:29;10.00;1.00
14699;DHT22;7439;50.804;4.602;2022-10-23T06:13:56;10.00;1.00
14699;DHT22;7439;50.804;4.602;2022-10-23T06:16:25;10.00;1.00
14699;DHT22;7439;50.804;4.602;2022-10-23T06:18:52;9.90;1.00
14699;DHT22;7439;50.804;4.602;2022-10-23T06:21:20;9.90;1.00
14699;DHT22;7439;50.804;4.602;2022-10-23T06:23:48;9.90;1.00
14699;DHT22;7439;50.804;4.602;2022-10-23T06:26:17;9.80;1.00
14699;DHT22;7439;50.804;4.602;2022-10-23T06:28:45;9.80;1.00
14699;DHT22;7439;50.804;4.602;2022-10-23T06:31:14;9.90;1.00
14699;DHT22;7439;50.804;4.602;2022-10-23T06:33:43;9.80;1.00
14699;DHT22;7439;50.804;4.602;2022-10-23T06:36:11;9.80;1.00
14699;DHT22;7439;50.804;4.602;2022-10-23T06:38:38;9.80;1.00
14699;DHT22;7439;50.804;4.602;2022-10-23T06:41:11;9.90;1.00
14699;DHT22;7439;50.804;4.602;2022-10-23T06:43:39;9.90;1.00
14699;DHT22;7439;50.804;4.602;2022-10-23T06:46:06;10.00;21.20
14699;DHT22;7439;50.804;4.602;2022-10-23T06:48:34;10.00;92.10
14699;DHT22;7439;50.804;4.602;2022-10-23T06:51:04;10.10;99.90
14699;DHT22;7439;50.804;4.602;2022-10-23T06:53:32;10.20;99.90
14699;DHT22;7439;50.804;4.602;2022-10-23T06:56:01;10.10;99.90
14699;DHT22;7439;50.804;4.602;2022-10-23T06:58:30;10.20;99.90
14699;DHT22;7439;50.804;4.602;2022-10-23T07:00:59;10.30;99.90
14699;DHT22;7439;50.804;4.602;2022-10-23T07:03:27;10.30;99.90
14699;DHT22;7439;50.804;4.602;2022-10-23T07:05:54;10.40;99.90
14699;DHT22;7439;50.804;4.602;2022-10-23T07:08:21;10.40;99.90
14699;DHT22;7439;50.804;4.602;2022-10-23T07:10:48;10.50;99.90
14699;DHT22;7439;50.804;4.602;2022-10-23T07:13:15;10.50;1.00
14699;DHT22;7439;50.804;4.602;2022-10-23T07:15:44;10.60;1.00
14699;DHT22;7439;50.804;4.602;2022-10-23T07:18:11;10.60;1.00
14699;DHT22;7439;50.804;4.602;2022-10-23T07:20:39;10.70;1.00
14699;DHT22;7439;50.804;4.602;2022-10-23T07:23:07;10.80;1.00
14699;DHT22;7439;50.804;4.602;2022-10-23T07:25:35;10.90;1.00
14699;DHT22;7439;50.804;4.602;2022-10-23T07:28:03;10.90;1.00
14699;DHT22;7439;50.804;4.602;2022-10-23T07:30:30;11.00;1.00
14699;DHT22;7439;50.804;4.602;2022-10-23T07:32:59;11.00;1.00
14699;DHT22;7439;50.804;4.602;2022-10-23T07:35:26;11.00;1.00
14699;DHT22;7439;50.804;4.602;2022-10-23T07:37:54;11.10;1.00
14699;DHT22;7439;50.804;4.602;2022-10-23T07:40:21;11.20;1.00
14699;DHT22;7439;50.804;4.602;2022-10-23T07:42:48;11.30;1.00
14699;DHT22;7439;50.804;4.602;2022-10-23T07:45:15;11.40;1.00
14699;DHT22;7439;50.804;4.602;2022-10-23T07:47:42;11.50;1.00
14699;DHT22;7439;50.804;4.602;2022-10-23T07:50:10;11.50;1.00
14699;DHT22;7439;50.804;4.602;2022-10-23T07:52:37;11.60;1.00
14699;DHT22;7439;50.804;4.602;2022-10-23T07:55:05;11.70;1.00
14699;DHT22;7439;50.804;4.602;2022-10-23T07:57:32;11.90;1.00
14699;DHT22;7439;50.804;4.602;2022-10-23T07:59:59;12.10;1.00
14699;DHT22;7439;50.804;4.602;2022-10-23T08:02:26;12.20;1.00
14699;DHT22;7439;50.804;4.602;2022-10-23T08:04:53;12.30;1.00
14699;DHT22;7439;50.804;4.602;2022-10-23T08:07:22;12.40;1.00
14699;DHT22;7439;50.804;4.602;2022-10-23T08:09:49;12.40;1.00
14699;DHT22;7439;50.804;4.602;2022-10-23T08:12:16;12.50;1.00
14699;DHT22;7439;50.804;4.602;2022-10-23T08:14:43;12.50;1.00
14699;DHT22;7439;50.804;4.602;2022-10-23T08:17:10;12.50;1.00
14699;DHT22;7439;50.804;4.602;2022-10-23T08:19:37;12.70;1.00
14699;DHT22;7439;50.804;4.602;2022-10-23T08:22:04;12.70;1.00
14699;DHT22;7439;50.804;4.602;2022-10-23T08:24:33;12.70;1.00
14699;DHT22;7439;50.804;4.602;2022-10-23T08:27:00;12.80;1.00
14699;DHT22;7439;50.804;4.602;2022-10-23T08:29:27;12.90;1.00
14699;DHT22;7439;50.804;4.602;2022-10-23T08:31:54;13.10;1.00
14699;DHT22;7439;50.804;4.602;2022-10-23T08:34:22;13.30;1.00
14699;DHT22;7439;50.804;4.602;2022-10-23T08:36:49;13.60;1.00
14699;DHT22;7439;50.804;4.602;2022-10-23T08:39:17;13.80;1.00
14699;DHT22;7439;50.804;4.602;2022-10-23T08:41:49;13.90;99.90
14699;DHT22;7439;50.804;4.602;2022-10-23T08:44:21;14.10;99.90
14699;DHT22;7439;50.804;4.602;2022-10-23T08:46:54;14.30;1.00
14699;DHT22;7439;50.804;4.602;2022-10-23T08:49:38;14.40;99.90
14699;DHT22;7439;50.804;4.602;2022-10-23T08:52:12;14.60;99.90
14699;DHT22;7439;50.804;4.602;2022-10-23T08:54:49;14.60;99.90
14699;DHT22;7439;50.804;4.602;2022-10-23T08:57:21;14.70;1.00
14699;DHT22;7439;50.804;4.602;2022-10-23T08:59:53;14.80;1.00
14699;DHT22;7439;50.804;4.602;2022-10-23T09:02:26;15.00;1.00
14699;DHT22;7439;50.804;4.602;2022-10-23T09:04:56;15.10;1.00
14699;DHT22;7439;50.804;4.602;2022-10-23T09:07:34;15.20;1.00
14699;DHT22;7439;50.804;4.602;2022-10-23T09:10:22;15.20;99.90
14699;DHT22;7439;50.804;4.602;2022-10-23T09:12:59;15.20;99.90
14699;DHT22;7439;50.804;4.602;2022-10-23T09:15:32;15.20;1.00
14699;DHT22;7439;50.804;4.602;2022-10-23T09:18:09;15.30;99.90
14699;DHT22;7439;50.804;4.602;2022-10-23T09:20:39;15.40;1.00
14699;DHT22;7439;50.804;4.602;2022-10-23T09:23:14;15.40;99.90
14699;DHT22;7439;50.804;4.602;2022-10-23T09:25:43;15.50;75.10
14699;DHT22;7439;50.804;4.602;2022-10-23T09:28:18;15.60;1.00
14699;DHT22;7439;50.804;4.602;2022-10-23T09:30:46;15.70;99.90
14699;DHT22;7439;50.804;4.602;2022-10-23T09:33:15;15.80;99.90
14699;DHT22;7439;50.804;4.602;2022-10-23T09:35:54;15.90;1.00
14699;DHT22;7439;50.804;4.602;2022-10-23T09:38:29;16.10;1.00
14699;DHT22;7439;50.804;4.602;2022-10-23T09:40:58;16.20;99.90
14699;DHT22;7439;50.804;4.602;2022-10-23T09:43:28;16.30;99.90
14699;DHT22;7439;50.804;4.602;2022-10-23T09:45:57;16.30;92.70
14699;DHT22;7439;50.804;4.602;2022-10-23T09:48:24;16.40;55.90
14699;DHT22;7439;50.804;4.602;2022-10-23T09:50:53;16.50;1.00
14699;DHT22;7439;50.804;4.602;2022-10-23T09:53:27;16.60;1.00
14699;DHT22;7439;50.804;4.602;2022-10-23T09:55:58;16.80;1.00
14699;DHT22;7439;50.804;4.602;2022-10-23T09:58:30;16.90;99.90
14699;DHT22;7439;50.804;4.602;2022-10-23T10:00:58;17.10;99.90
14699;DHT22;7439;50.804;4.602;2022-10-23T10:03:25;17.10;99.90
14699;DHT22;7439;50.804;4.602;2022-10-23T10:05:55;17.30;99.90
14699;DHT22;7439;50.804;4.602;2022-10-23T10:08:38;17.40;39.20
14699;DHT22;7439;50.804;4.602;2022-10-23T10:11:11;17.40;1.00
14699;DHT22;7439;50.804;4.602;2022-10-23T10:16:47;17.40;1.00
14699;DHT22;7439;50.804;4.602;2022-10-23T10:19:29;17.40;1.00
14699;DHT22;7439;50.804;4.602;2022-10-23T10:22:02;17.40;1.00
14699;DHT22;7439;50.804;4.602;2022-10-23T10:24:38;17.40;1.00
14699;DHT22;7439;50.804;4.602;2022-10-23T10:27:14;17.40;1.00
14699;DHT22;7439;50.804;4.602;2022-10-23T10:29:54;17.40;1.00
14699;DHT22;7439;50.804;4.602;2022-10-23T10:32:32;17.40;1.00
14699;DHT22;7439;50.804;4.602;2022-10-23T10:35:10;17.60;1.00
14699;DHT22;7439;50.804;4.602;2022-10-23T10:37:51;17.50;1.00
14699;DHT22;7439;50.804;4.602;2022-10-23T10:40:23;17.70;1.00
14699;DHT22;7439;50.804;4.602;2022-10-23T10:43:12;17.80;1.00
14699;DHT22;7439;50.804;4.602;2022-10-23T10:45:46;17.80;1.00
14699;DHT22;7439;50.804;4.602;2022-10-23T10:48:40;17.90;99.90
14699;DHT22;7439;50.804;4.602;2022-10-23T10:51:15;17.90;99.90
14699;DHT22;7439;50.804;4.602;2022-10-23T10:53:56;18.20;99.90
14699;DHT22;7439;50.804;4.602;2022-10-23T10:56:28;18.40;99.90
14699;DHT22;7439;50.804;4.602;2022-10-23T10:58:59;18.40;99.90
14699;DHT22;7439;50.804;4.602;2022-10-23T11:01:31;18.50;99.90
14699;DHT22;7439;50.804;4.602;2022-10-23T11:04:09;18.50;99.90
14699;DHT22;7439;50.804;4.602;2022-10-23T11:06:38;18.50;99.90
14699;DHT22;7439;50.804;4.602;2022-10-23T11:09:16;18.50;99.90
14699;DHT22;7439;50.804;4.602;2022-10-23T11:11:43;18.50;99.90
14699;DHT22;7439;50.804;4.602;2022-10-23T11:14:14;18.50;99.90
14699;DHT22;7439;50.804;4.602;2022-10-23T11:16:45;18.60;99.90
14699;DHT22;7439;50.804;4.602;2022-10-23T11:19:20;18.70;99.90
14699;DHT22;7439;50.804;4.602;2022-10-23T11:21:54;18.80;99.90
14699;DHT22;7439;50.804;4.602;2022-10-23T11:24:42;18.90;99.90
14699;DHT22;7439;50.804;4.602;2022-10-23T11:30:22;19.10;99.90
14699;DHT22;7439;50.804;4.602;2022-10-23T11:36:05;19.40;99.90
14699;DHT22;7439;50.804;4.602;2022-10-23T11:38:33;19.50;99.90
14699;DHT22;7439;50.804;4.602;2022-10-23T11:41:03;19.60;99.90
14699;DHT22;7439;50.804;4.602;2022-10-23T11:43:33;19.60;99.90
14699;DHT22;7439;50.804;4.602;2022-10-23T11:46:11;19.70;99.90
14699;DHT22;7439;50.804;4.602;2022-10-23T11:48:39;19.60;99.90
14699;DHT22;7439;50.804;4.602;2022-10-23T11:51:26;19.70;99.90
14699;DHT22;7439;50.804;4.602;2022-10-23T11:54:05;19.80;99.90
14699;DHT22;7439;50.804;4.602;2022-10-23T11:56:32;19.70;99.90
14699;DHT22;7439;50.804;4.602;2022-10-23T11:59:18;19.80;99.90
14699;DHT22;7439;50.804;4.602;2022-10-23T12:01:48;19.90;99.90
14699;DHT22;7439;50.804;4.602;2022-10-23T12:04:20;19.80;99.90
14699;DHT22;7439;50.804;4.602;2022-10-23T12:06:51;20.00;99.90
14699;DHT22;7439;50.804;4.602;2022-10-23T12:09:25;20.10;99.90
14699;DHT22;7439;50.804;4.602;2022-10-23T12:12:15;20.20;99.90
14699;DHT22;7439;50.804;4.602;2022-10-23T12:14:44;20.20;99.90
14699;DHT22;7439;50.804;4.602;2022-10-23T12:17:29;20.20;99.90
14699;DHT22;7439;50.804;4.602;2022-10-23T12:20:23;20.10;99.90
14699;DHT22;7439;50.804;4.602;2022-10-23T12:23:04;20.20;99.90
14699;DHT22;7439;50.804;4.602;2022-10-23T12:25:38;20.20;99.90
14699;DHT22;7439;50.804;4.602;2022-10-23T12:28:14;20.10;99.90
14699;DHT22;7439;50.804;4.602;2022-10-23T12:30:52;20.20;99.90
14699;DHT22;7439;50.804;4.602;2022-10-23T12:33:25;20.20;99.90
14699;DHT22;7439;50.804;4.602;2022-10-23T12:36:24;20.20;99.90
14699;DHT22;7439;50.804;4.602;2022-10-23T12:38:56;20.10;94.70
14699;DHT22;7439;50.804;4.602;2022-10-23T12:41:26;20.10;94.60
14699;DHT22;7439;50.804;4.602;2022-10-23T12:43:55;20.20;95.40
14699;DHT22;7439;50.804;4.602;2022-10-23T12:46:32;20.20;90.20
14699;DHT22;7439;50.804;4.602;2022-10-23T12:49:01;20.30;88.20
14699;DHT22;7439;50.804;4.602;2022-10-23T12:51:31;20.40;79.30
14699;DHT22;7439;50.804;4.602;2022-10-23T12:54:00;20.40;85.50
14699;DHT22;7439;50.804;4.602;2022-10-23T12:56:34;20.50;72.70
14699;DHT22;7439;50.804;4.602;2022-10-23T12:59:01;20.50;72.50
14699;DHT22;7439;50.804;4.602;2022-10-23T13:01:32;20.50;60.50
14699;DHT22;7439;50.804;4.602;2022-10-23T13:04:06;20.70;58.00
14699;DHT22;7439;50.804;4.602;2022-10-23T13:06:34;21.00;34.50
14699;DHT22;7439;50.804;4.602;2022-10-23T13:09:03;20.90;33.10
14699;DHT22;7439;50.804;4.602;2022-10-23T13:11:32;20.90;31.70
14699;DHT22;7439;50.804;4.602;2022-10-23T13:13:59;21.00;32.80
14699;DHT22;7439;50.804;4.602;2022-10-23T13:16:26;21.20;28.80
14699;DHT22;7439;50.804;4.602;2022-10-23T13:18:53;21.30;20.50
14699;DHT22;7439;50.804;4.602;2022-10-23T13:21:22;21.20;31.80
14699;DHT22;7439;50.804;4.602;2022-10-23T13:23:50;21.10;29.00
14699;DHT22;7439;50.804;4.602;2022-10-23T13:26:30;20.90;33.40
14699;DHT22;7439;50.804;4.602;2022-10-23T13:28:59;20.70;31.30
14699;DHT22;7439;50.804;4.602;2022-10-23T13:31:29;20.50;37.90
14699;DHT22;7439;50.804;4.602;2022-10-23T13:34:06;20.40;46.40
14699;DHT22;7439;50.804;4.602;2022-10-23T13:36:49;20.40;50.20
14699;DHT22;7439;50.804;4.602;2022-10-23T13:39:22;20.30;53.30
14699;DHT22;7439;50.804;4.602;2022-10-23T13:41:51;20.30;55.40
14699;DHT22;7439;50.804;4.602;2022-10-23T13:44:22;20.30;71.40
14699;DHT22;7439;50.804;4.602;2022-10-23T13:46:50;20.30;72.90
14699;DHT22;7439;50.804;4.602;2022-10-23T13:49:20;20.30;73.00
14699;DHT22;7439;50.804;4.602;2022-10-23T13:51:50;20.30;72.30
14699;DHT22;7439;50.804;4.602;2022-10-23T13:54:20;20.40;73.10
14699;DHT22;7439;50.804;4.602;2022-10-23T13:56:47;20.50;68.30
14699;DHT22;7439;50.804;4.602;2022-10-23T13:59:18;20.50;61.40
14699;DHT22;7439;50.804;4.602;2022-10-23T14:01:49;20.50;58.30
14699;DHT22;7439;50.804;4.602;2022-10-23T14:04:17;20.40;46.70
14699;DHT22;7439;50.804;4.602;2022-10-23T14:06:44;20.40;40.10
14699;DHT22;7439;50.804;4.602;2022-10-23T14:09:13;20.30;38.00
14699;DHT22;7439;50.804;4.602;2022-10-23T14:11:40;20.30;38.60
14699;DHT22;7439;50.804;4.602;2022-10-23T14:14:08;20.20;43.50
14699;DHT22;7439;50.804;4.602;2022-10-23T14:16:36;20.20;50.20
14699;DHT22;7439;50.804;4.602;2022-10-23T14:19:03;20.20;51.60
14699;DHT22;7439;50.804;4.602;2022-10-23T14:21:31;20.10;49.90
14699;DHT22;7439;50.804;4.602;2022-10-23T14:23:58;20.10;41.90
14699;DHT22;7439;50.804;4.602;2022-10-23T14:26:26;20.00;46.40
14699;DHT22;7439;50.804;4.602;2022-10-23T14:28:56;20.00;66.90
14699;DHT22;7439;50.804;4.602;2022-10-23T14:31:24;20.00;63.80
14699;DHT22;7439;50.804;4.602;2022-10-23T14:33:54;19.90;61.00
14699;DHT22;7439;50.804;4.602;2022-10-23T14:36:22;19.90;65.00
14699;DHT22;7439;50.804;4.602;2022-10-23T14:38:54;19.90;80.50
14699;DHT22;7439;50.804;4.602;2022-10-23T14:41:21;19.90;74.10
14699;DHT22;7439;50.804;4.602;2022-10-23T14:43:48;19.80;87.20
14699;DHT22;7439;50.804;4.602;2022-10-23T14:46:17;19.80;95.00
14699;DHT22;7439;50.804;4.602;2022-10-23T14:48:44;19.70;97.50
14699;DHT22;7439;50.804;4.602;2022-10-23T14:51:17;19.70;93.70
14699;DHT22;7439;50.804;4.602;2022-10-23T14:53:45;19.70;94.20
14699;DHT22;7439;50.804;4.602;2022-10-23T14:56:12;19.70;95.40
14699;DHT22;7439;50.804;4.602;2022-10-23T14:58:39;19.70;99.90
14699;DHT22;7439;50.804;4.602;2022-10-23T15:01:07;19.60;99.90
14699;DHT22;7439;50.804;4.602;2022-10-23T15:03:35;19.60;99.90
14699;DHT22;7439;50.804;4.602;2022-10-23T15:06:02;19.60;99.90
14699;DHT22;7439;50.804;4.602;2022-10-23T15:08:31;19.60;99.90
14699;DHT22;7439;50.804;4.602;2022-10-23T15:10:58;19.50;99.90
14699;DHT22;7439;50.804;4.602;2022-10-23T15:13:26;19.50;99.90
14699;DHT22;7439;50.804;4.602;2022-10-23T15:16:01;19.40;99.90
14699;DHT22;7439;50.804;4.602;2022-10-23T15:18:28;19.30;99.90
14699;DHT22;7439;50.804;4.602;2022-10-23T15:20:55;19.40;99.90
14699;DHT22;7439;50.804;4.602;2022-10-23T15:23:22;19.40;99.90
14699;DHT22;7439;50.804;4.602;2022-10-23T15:25:57;19.40;99.90
14699;DHT22;7439;50.804;4.602;2022-10-23T15:28:25;19.50;99.90
14699;DHT22;7439;50.804;4.602;2022-10-23T15:30:52;19.40;99.90
14699;DHT22;7439;50.804;4.602;2022-10-23T15:33:19;19.40;99.90
14699;DHT22;7439;50.804;4.602;2022-10-23T15:35:47;19.40;99.90
14699;DHT22;7439;50.804;4.602;2022-10-23T15:38:14;19.50;99.90
14699;DHT22;7439;50.804;4.602;2022-10-23T15:40:42;19.50;99.90
14699;DHT22;7439;50.804;4.602;2022-10-23T15:43:12;19.40;99.90
14699;DHT22;7439;50.804;4.602;2022-10-23T15:45:39;19.50;99.90
14699;DHT22;7439;50.804;4.602;2022-10-23T15:48:07;19.50;99.90
14699;DHT22;7439;50.804;4.602;2022-10-23T15:50:35;19.60;99.90
14699;DHT22;7439;50.804;4.602;2022-10-23T15:53:02;19.60;99.90
14699;DHT22;7439;50.804;4.602;2022-10-23T15:55:29;19.50;99.90
14699;DHT22;7439;50.804;4.602;2022-10-23T15:57:57;19.50;99.90
14699;DHT22;7439;50.804;4.602;2022-10-23T16:00:30;19.50;99.90
14699;DHT22;7439;50.804;4.602;2022-10-23T16:03:01;19.50;99.90
14699;DHT22;7439;50.804;4.602;2022-10-23T16:05:28;19.50;99.90
14699;DHT22;7439;50.804;4.602;2022-10-23T16:07:55;19.40;99.90
14699;DHT22;7439;50.804;4.602;2022-10-23T16:10:24;19.30;99.90
14699;DHT22;7439;50.804;4.602;2022-10-23T16:12:51;19.30;99.90
14699;DHT22;7439;50.804;4.602;2022-10-23T16:15:21;19.30;99.90
14699;DHT22;7439;50.804;4.602;2022-10-23T16:17:49;19.30;99.90
14699;DHT22;7439;50.804;4.602;2022-10-23T16:20:16;19.20;99.90
14699;DHT22;7439;50.804;4.602;2022-10-23T16:22:45;19.10;99.90
14699;DHT22;7439;50.804;4.602;2022-10-23T16:25:12;19.10;99.90
14699;DHT22;7439;50.804;4.602;2022-10-23T16:27:39;19.10;99.90